Time;durP1;ratioP1;P1;durP2;ratioP2;P2;SDS_P1;SDS_P2;PMS_P1;PMS_P2;Temp;Humidity;BMP_temperature;BMP_pressure;BME280_temperature;BME280_humidity;BME280_pressure;Samples;Min_cycle;Max_cycle;Signal;HPM_P1;HPM_P2
2022/06/24 00:01:15;;;;;;;7.63;3.60;;;20.70;78.30;;;;;;5013775;28;20092;-73
2022/06/24 00:03:45;;;;;;;6.32;3.17;;;20.70;79.00;;;;;;5015615;28;20041;-74
2022/06/24 00:06:18;;;;;;;4.90;3.40;;;20.60;79.50;;;;;;5007270;28;20035;-74
2022/06/24 00:08:49;;;;;;;5.25;3.33;;;20.50;79.90;;;;;;5010809;28;20049;-74
2022/06/24 00:11:14;;;;;;;5.18;3.53;;;20.50;79.80;;;;;;5043823;28;20037;-73
2022/06/24 00:13:43;;;;;;;3.92;3.53;;;20.40;79.80;;;;;;5013006;28;20041;-73
2022/06/24 00:16:09;;;;;;;4.38;3.45;;;20.40;80.30;;;;;;5008196;28;20138;-73
2022/06/24 00:18:35;;;;;;;5.10;4.25;;;20.30;80.50;;;;;;5038467;28;20152;-73
2022/06/24 00:21:11;;;;;;;6.93;4.00;;;20.30;80.60;;;;;;5028827;28;20040;-73
2022/06/24 00:23:42;;;;;;;6.32;3.95;;;20.20;81.40;;;;;;5039820;28;20076;-73
2022/06/24 00:26:10;;;;;;;4.93;3.55;;;20.20;81.90;;;;;;5040535;28;20061;-74
2022/06/24 00:28:36;;;;;;;5.18;3.50;;;20.10;82.20;;;;;;5043383;28;20446;-73
2022/06/24 00:31:03;;;;;;;4.72;3.35;;;20.20;82.70;;;;;;5012790;28;20042;-74
2022/06/24 00:33:34;;;;;;;4.28;3.72;;;20.10;83.50;;;;;;5015202;28;20056;-73
2022/06/24 00:36:00;;;;;;;4.78;3.58;;;20.00;83.80;;;;;;5027609;28;20054;-73
2022/06/24 00:38:26;;;;;;;5.18;3.80;;;20.00;84.10;;;;;;5020232;28;20053;-73
2022/06/24 00:41:15;;;;;;;6.75;4.00;;;19.90;84.60;;;;;;5036021;28;20046;-73
2022/06/24 00:43:53;;;;;;;5.97;4.30;;;19.90;84.60;;;;;;5003969;28;20563;-73
2022/06/24 00:46:24;;;;;;;6.40;3.90;;;19.90;84.80;;;;;;5041659;28;20087;-74
2022/06/24 00:48:52;;;;;;;6.75;4.45;;;19.80;85.20;;;;;;5013840;28;20130;-73
2022/06/24 00:51:20;;;;;;;6.18;4.50;;;19.80;84.60;;;;;;5034204;28;20087;-73
2022/06/24 00:53:51;;;;;;;8.13;5.20;;;19.80;84.70;;;;;;5003825;28;20049;-73
2022/06/24 00:56:25;;;;;;;5.22;4.55;;;19.70;85.00;;;;;;5032989;28;20045;-73
2022/06/24 00:58:55;;;;;;;5.80;4.88;;;19.70;85.50;;;;;;5018214;28;20052;-73
2022/06/24 01:01:36;;;;;;;6.25;4.78;;;19.70;86.00;;;;;;5048368;28;20118;-73
2022/06/24 01:04:03;;;;;;;7.30;4.60;;;19.60;86.60;;;;;;5021566;28;20056;-73
2022/06/24 01:06:30;;;;;;;7.38;4.75;;;19.50;87.00;;;;;;5012793;28;20030;-73
2022/06/24 01:08:56;;;;;;;5.82;5.25;;;19.50;87.40;;;;;;5002754;28;20037;-73
2022/06/24 01:11:23;;;;;;;5.90;4.95;;;19.40;87.70;;;;;;5011497;28;20091;-74
2022/06/24 01:13:50;;;;;;;6.55;4.82;;;19.40;88.60;;;;;;5039982;28;20048;-73
2022/06/24 01:16:15;;;;;;;5.85;5.00;;;19.20;89.30;;;;;;5009881;28;20567;-73
2022/06/24 01:18:41;;;;;;;5.57;4.75;;;19.10;90.00;;;;;;5010317;28;20045;-73
2022/06/24 01:21:07;;;;;;;6.70;5.05;;;19.10;90.40;;;;;;4999271;28;20056;-73
2022/06/24 01:23:32;;;;;;;6.72;4.50;;;19.00;90.70;;;;;;5011095;28;20116;-73
2022/06/24 01:25:58;;;;;;;5.75;4.63;;;19.00;90.80;;;;;;5029333;28;20105;-73
2022/06/24 01:28:24;;;;;;;7.28;5.28;;;18.90;91.00;;;;;;5009918;28;20037;-73
2022/06/24 01:30:49;;;;;;;6.93;4.63;;;18.90;91.20;;;;;;5029501;28;20040;-74
2022/06/24 01:33:15;;;;;;;6.88;4.70;;;18.90;91.30;;;;;;5012564;28;20442;-74
2022/06/24 01:35:41;;;;;;;6.00;4.53;;;18.90;91.70;;;;;;5008814;28;20068;-73
2022/06/24 01:38:07;;;;;;;5.60;4.22;;;18.80;91.70;;;;;;5002027;28;20131;-74
2022/06/24 01:40:33;;;;;;;7.78;4.35;;;18.80;91.70;;;;;;5010615;28;20084;-73
2022/06/24 01:43:01;;;;;;;5.57;4.03;;;18.80;91.90;;;;;;5011365;28;20120;-73
2022/06/24 01:45:26;;;;;;;5.18;4.32;;;18.80;92.10;;;;;;5018723;28;20044;-73
2022/06/24 01:47:52;;;;;;;5.05;4.32;;;18.80;92.10;;;;;;5013335;28;20418;-73
2022/06/24 01:50:18;;;;;;;4.47;4.07;;;18.80;92.00;;;;;;5006204;28;20037;-73
2022/06/24 01:52:43;;;;;;;6.80;4.00;;;18.80;91.90;;;;;;4985976;28;20041;-73
2022/06/24 01:55:09;;;;;;;6.50;3.90;;;18.80;92.10;;;;;;5026804;28;20103;-73
2022/06/24 01:57:35;;;;;;;6.10;4.28;;;18.70;92.00;;;;;;5025183;28;20106;-73
2022/06/24 02:00:00;;;;;;;6.38;4.45;;;18.70;92.20;;;;;;5009473;28;20061;-73
2022/06/24 02:02:26;;;;;;;6.00;4.65;;;18.70;92.30;;;;;;5009941;28;20384;-73
2022/06/24 02:04:54;;;;;;;4.68;4.20;;;18.70;92.40;;;;;;5026228;28;20065;-73
2022/06/24 02:07:20;;;;;;;5.93;4.32;;;18.70;92.50;;;;;;5027681;28;20033;-73
2022/06/24 02:15:15;;;;;;;4.50;4.03;;;18.60;93.00;;;;;;5011288;28;20124;-73
2022/06/24 02:17:41;;;;;;;5.85;4.50;;;18.50;92.80;;;;;;5010574;28;20335;-73
2022/06/24 02:20:07;;;;;;;5.72;4.40;;;18.50;92.90;;;;;;4977380;28;20040;-73
2022/06/24 02:22:33;;;;;;;6.90;4.43;;;18.50;92.90;;;;;;5009195;28;20409;-73
2022/06/24 02:24:59;;;;;;;6.95;4.88;;;18.50;92.90;;;;;;5009755;28;20041;-73
2022/06/24 02:27:25;;;;;;;5.32;4.68;;;18.40;92.90;;;;;;4993696;28;20033;-73
2022/06/24 02:29:51;;;;;;;7.20;4.43;;;18.40;93.10;;;;;;5008002;28;20056;-73
2022/06/24 02:32:17;;;;;;;5.03;4.63;;;18.40;93.30;;;;;;5022095;28;20033;-72
2022/06/24 02:34:43;;;;;;;6.55;4.88;;;18.40;93.60;;;;;;5001200;28;20482;-73
2022/06/24 02:37:08;;;;;;;5.93;4.75;;;18.40;93.90;;;;;;5008175;28;20136;-73
2022/06/24 02:39:34;;;;;;;6.63;5.00;;;18.40;94.00;;;;;;5018475;28;20511;-73
2022/06/24 02:42:00;;;;;;;7.10;5.20;;;18.40;93.90;;;;;;5028176;28;20487;-73
2022/06/24 02:44:25;;;;;;;5.97;4.80;;;18.40;93.80;;;;;;5024144;28;20041;-73
2022/06/24 02:46:51;;;;;;;7.22;5.07;;;18.30;93.90;;;;;;5012955;28;20457;-73
2022/06/24 02:49:17;;;;;;;6.22;4.40;;;18.30;94.40;;;;;;5042879;28;20048;-73
2022/06/24 02:51:42;;;;;;;5.40;4.20;;;18.30;94.50;;;;;;5028060;28;20120;-73
2022/06/24 02:54:08;;;;;;;7.55;5.05;;;18.40;94.60;;;;;;5028837;28;20047;-73
2022/06/24 02:56:34;;;;;;;6.43;4.68;;;18.30;94.60;;;;;;5024238;28;20037;-73
2022/06/24 02:58:59;;;;;;;5.75;4.40;;;18.40;94.80;;;;;;5005446;28;20106;-73
2022/06/24 03:01:25;;;;;;;6.28;4.63;;;18.40;94.80;;;;;;5012474;28;20038;-73
2022/06/24 03:03:51;;;;;;;8.02;4.35;;;18.40;94.90;;;;;;5029317;28;20449;-73
2022/06/24 03:06:17;;;;;;;6.32;4.65;;;18.50;95.00;;;;;;5030182;28;20033;-73
2022/06/24 03:08:43;;;;;;;8.38;4.80;;;18.50;95.10;;;;;;5010917;28;20037;-73
2022/06/24 03:11:08;;;;;;;7.90;4.70;;;18.50;95.30;;;;;;5013159;28;20037;-73
2022/06/24 03:13:34;;;;;;;5.72;4.35;;;18.40;95.60;;;;;;5028170;28;20033;-73
2022/06/24 03:16:01;;;;;;;6.07;4.75;;;18.50;95.70;;;;;;5029693;28;20132;-73
2022/06/24 03:18:26;;;;;;;6.03;4.93;;;18.50;95.70;;;;;;5026685;28;20337;-73
2022/06/24 03:20:52;;;;;;;6.93;4.68;;;18.40;95.70;;;;;;5027661;28;20045;-73
2022/06/24 03:23:19;;;;;;;5.93;5.10;;;18.40;95.70;;;;;;5013721;28;20040;-73
2022/06/24 03:25:45;;;;;;;4.82;4.10;;;18.40;95.80;;;;;;4997252;28;20033;-73
2022/06/24 03:28:12;;;;;;;5.43;4.30;;;18.40;95.70;;;;;;5027937;28;20037;-72
2022/06/24 03:30:38;;;;;;;5.43;4.32;;;18.40;95.50;;;;;;5011753;28;20092;-73
2022/06/24 03:33:04;;;;;;;6.38;3.88;;;18.50;95.50;;;;;;5013436;28;20471;-73
2022/06/24 03:35:30;;;;;;;5.88;4.10;;;18.50;95.80;;;;;;5025419;28;20415;-74
2022/06/24 03:37:56;;;;;;;6.40;3.92;;;18.50;95.60;;;;;;5027093;28;20041;-73
2022/06/24 03:40:22;;;;;;;4.82;4.25;;;18.60;95.60;;;;;;5027284;28;20041;-73
2022/06/24 03:42:47;;;;;;;5.43;4.18;;;18.60;95.80;;;;;;5009681;28;20152;-73
2022/06/24 03:45:13;;;;;;;6.68;4.38;;;18.60;95.80;;;;;;5006211;28;20060;-73
2022/06/24 03:47:39;;;;;;;9.30;4.32;;;18.60;95.90;;;;;;5025677;28;20033;-73
2022/06/24 03:50:05;;;;;;;6.75;4.20;;;18.60;96.00;;;;;;5012515;28;20349;-73
2022/06/24 03:52:30;;;;;;;7.38;4.13;;;18.60;96.00;;;;;;5023349;28;20127;-74
2022/06/24 03:54:56;;;;;;;5.00;4.28;;;18.60;95.70;;;;;;5012329;28;20751;-73
2022/06/24 03:57:22;;;;;;;8.38;3.80;;;18.60;95.70;;;;;;5010223;28;20037;-73
2022/06/24 03:59:47;;;;;;;4.28;3.88;;;18.60;95.70;;;;;;4986616;28;20064;-72
2022/06/24 04:02:13;;;;;;;7.10;4.00;;;18.70;95.90;;;;;;4995792;28;20576;-73
2022/06/24 04:04:39;;;;;;;9.35;4.57;;;18.50;96.30;;;;;;5027074;28;20060;-73
2022/06/24 04:07:05;;;;;;;5.18;3.90;;;18.70;96.60;;;;;;5012485;28;20052;-73
2022/06/24 04:09:30;;;;;;;4.75;4.30;;;18.70;96.50;;;;;;5013786;28;20037;-73
2022/06/24 04:11:56;;;;;;;6.00;4.85;;;18.70;96.60;;;;;;5029973;28;20041;-73
2022/06/24 04:17:07;;;;;;;6.03;4.30;;;18.70;96.80;;;;;;5031894;28;20041;-73
2022/06/24 04:19:36;;;;;;;8.80;5.20;;;18.70;96.80;;;;;;5036562;28;20083;-73
2022/06/24 04:22:03;;;;;;;7.10;4.72;;;18.70;97.20;;;;;;4995550;28;20039;-73
2022/06/24 04:24:29;;;;;;;6.22;4.45;;;18.70;97.00;;;;;;5027859;28;20029;-73
2022/06/24 04:26:54;;;;;;;6.15;4.60;;;18.80;97.10;;;;;;5011777;28;20044;-74
2022/06/24 04:29:20;;;;;;;5.20;4.38;;;18.80;97.20;;;;;;5027829;28;20037;-73
2022/06/24 04:31:46;;;;;;;4.93;4.45;;;18.90;97.50;;;;;;5011359;28;20037;-73
2022/06/24 04:34:12;;;;;;;7.15;4.70;;;19.00;97.70;;;;;;4996092;28;20033;-73
2022/06/24 04:36:37;;;;;;;5.63;4.40;;;19.00;97.60;;;;;;5011532;28;20624;-73
2022/06/24 04:39:03;;;;;;;5.80;4.32;;;19.10;97.80;;;;;;5010781;28;20044;-73
2022/06/24 04:41:29;;;;;;;7.45;5.22;;;19.20;97.90;;;;;;5011500;28;20037;-72
2022/06/24 04:43:54;;;;;;;6.43;4.93;;;19.20;98.20;;;;;;5011449;28;20438;-73
2022/06/24 04:46:21;;;;;;;5.80;4.95;;;19.30;98.70;;;;;;5011595;28;20120;-73
2022/06/24 04:48:46;;;;;;;7.60;4.95;;;19.30;98.70;;;;;;5011984;28;20038;-73
2022/06/24 04:51:12;;;;;;;6.38;4.85;;;19.40;99.10;;;;;;4979632;28;20033;-73
2022/06/24 04:53:38;;;;;;;5.50;4.32;;;19.40;99.20;;;;;;5029211;28;20037;-73
2022/06/24 04:56:04;;;;;;;5.03;4.53;;;19.40;99.20;;;;;;5009884;28;20041;-73
2022/06/24 04:58:30;;;;;;;6.70;4.07;;;19.50;98.80;;;;;;5008532;28;20388;-73
2022/06/24 05:00:56;;;;;;;5.45;4.32;;;19.50;98.70;;;;;;5012321;28;20037;-73
2022/06/24 05:03:21;;;;;;;7.10;4.25;;;19.50;98.40;;;;;;5036481;28;21327;-73
2022/06/24 05:05:47;;;;;;;6.57;4.70;;;19.60;98.00;;;;;;5011348;28;20456;-73
2022/06/24 05:08:13;;;;;;;5.88;4.47;;;19.70;97.60;;;;;;5029309;28;20044;-73
2022/06/24 05:10:41;;;;;;;12.43;6.90;;;19.80;97.50;;;;;;5010052;28;20098;-73
2022/06/24 05:13:08;;;;;;;9.30;7.45;;;19.90;97.80;;;;;;5028435;28;20076;-73
2022/06/24 05:15:34;;;;;;;9.20;7.28;;;19.90;98.30;;;;;;5025175;28;20494;-73
2022/06/24 05:17:59;;;;;;;9.50;8.57;;;20.00;98.90;;;;;;5027444;28;20041;-73
2022/06/24 05:20:25;;;;;;;11.15;8.50;;;20.10;99.70;;;;;;5009303;28;20084;-73
2022/06/24 05:22:51;;;;;;;14.15;9.85;;;20.10;99.90;;;;;;5026132;28;20045;-73
2022/06/24 05:25:16;;;;;;;14.80;10.40;;;20.20;99.90;;;;;;5003733;28;20041;-73
2022/06/24 05:27:42;;;;;;;16.50;10.15;;;20.20;99.90;;;;;;5010636;28;20037;-73
2022/06/24 05:30:10;;;;;;;16.13;10.10;;;20.20;99.90;;;;;;5009872;28;20080;-73
2022/06/24 05:32:35;;;;;;;13.45;10.40;;;20.20;99.90;;;;;;4983657;28;20487;-73
2022/06/24 05:35:01;;;;;;;15.45;10.48;;;20.20;99.90;;;;;;5012616;28;20102;-73
2022/06/24 05:37:27;;;;;;;13.77;11.45;;;20.20;99.90;;;;;;5039732;28;20462;-74
2022/06/24 05:39:53;;;;;;;27.00;12.35;;;20.20;99.90;;;;;;5013685;28;20053;-75
2022/06/24 05:42:18;;;;;;;15.10;12.27;;;20.20;99.90;;;;;;4997245;28;20030;-74
2022/06/24 05:44:44;;;;;;;14.98;13.07;;;20.10;99.90;;;;;;5011019;28;20045;-75
2022/06/24 05:47:10;;;;;;;25.10;13.15;;;20.00;99.90;;;;;;5020524;28;20037;-74
2022/06/24 05:49:35;;;;;;;17.25;12.13;;;19.90;99.90;;;;;;5031380;28;20052;-75
2022/06/24 05:52:01;;;;;;;17.10;13.55;;;19.90;99.90;;;;;;4993852;28;20124;-74
2022/06/24 05:57:11;;;;;;;15.18;12.18;;;19.90;99.90;;;;;;5015505;28;20454;-74
2022/06/24 05:59:38;;;;;;;14.07;12.57;;;19.90;99.90;;;;;;5012424;28;20044;-74
2022/06/24 06:02:08;;;;;;;16.45;11.95;;;19.90;99.90;;;;;;5009201;28;20048;-74
2022/06/24 06:04:34;;;;;;;17.73;12.90;;;19.80;99.90;;;;;;5011549;28;20494;-74
2022/06/24 06:07:00;;;;;;;12.35;11.15;;;19.80;99.90;;;;;;5024242;28;20052;-74
2022/06/24 06:09:25;;;;;;;13.75;10.70;;;19.80;99.90;;;;;;5026255;28;20045;-74
2022/06/24 06:11:51;;;;;;;13.10;10.13;;;19.80;99.90;;;;;;4993004;28;20044;-74
2022/06/24 06:14:17;;;;;;;10.68;9.57;;;19.80;99.90;;;;;;5005003;28;20041;-75
2022/06/24 06:16:43;;;;;;;13.35;10.52;;;19.80;99.90;;;;;;5037990;28;20276;-74
2022/06/24 06:19:09;;;;;;;11.02;8.65;;;19.80;99.90;;;;;;5041032;28;20095;-74
2022/06/24 06:21:35;;;;;;;10.57;8.82;;;19.90;99.90;;;;;;5014263;28;20571;-74
2022/06/24 06:24:01;;;;;;;10.48;8.30;;;19.90;99.90;;;;;;5008049;28;20041;-74
2022/06/24 06:26:28;;;;;;;12.20;8.68;;;19.90;99.90;;;;;;5037403;28;20037;-74
2022/06/24 06:28:54;;;;;;;9.55;8.52;;;19.90;99.90;;;;;;5035305;28;20033;-75
2022/06/24 06:31:20;;;;;;;11.52;8.68;;;19.90;99.90;;;;;;5034438;28;20502;-74
2022/06/24 06:33:46;;;;;;;12.75;8.35;;;19.90;99.90;;;;;;5008705;28;20048;-74
2022/06/24 06:36:12;;;;;;;12.80;8.65;;;19.90;99.90;;;;;;5028190;28;20046;-75
2022/06/24 06:38:39;;;;;;;9.95;7.80;;;19.90;99.90;;;;;;5020624;28;20515;-77
2022/06/24 06:41:05;;;;;;;11.55;8.13;;;19.90;99.90;;;;;;5024206;28;20041;-77
2022/06/24 06:43:31;;;;;;;13.20;8.40;;;19.90;99.90;;;;;;5022903;28;20036;-77
2022/06/24 06:45:57;;;;;;;9.20;8.23;;;19.90;99.90;;;;;;4998948;28;20065;-77
2022/06/24 06:48:24;;;;;;;11.57;8.45;;;19.90;99.90;;;;;;5019507;28;20034;-77
2022/06/24 06:50:54;;;;;;;13.13;7.97;;;19.90;99.90;;;;;;5029463;28;20041;-77
2022/06/24 06:53:20;;;;;;;10.35;8.10;;;19.90;99.90;;;;;;5009156;28;20045;-76
2022/06/24 06:55:46;;;;;;;12.70;8.70;;;19.80;99.90;;;;;;5027006;28;20044;-76
2022/06/24 06:58:11;;;;;;;10.38;8.73;;;19.80;99.90;;;;;;5034498;28;20038;-76
2022/06/24 07:00:37;;;;;;;12.75;9.18;;;19.80;99.90;;;;;;5015485;28;20102;-75
2022/06/24 07:03:03;;;;;;;11.10;8.50;;;19.70;99.90;;;;;;4999430;28;20033;-76
2022/06/24 07:05:29;;;;;;;10.48;7.95;;;19.80;99.90;;;;;;5023452;28;20231;-77
2022/06/24 07:07:54;;;;;;;9.80;8.80;;;19.80;99.90;;;;;;5032114;28;20049;-75
2022/06/24 07:10:20;;;;;;;12.48;8.32;;;19.70;99.90;;;;;;5051224;28;20091;-76
2022/06/24 07:12:46;;;;;;;11.20;9.18;;;19.70;99.90;;;;;;5033744;28;20072;-77
2022/06/24 07:15:14;;;;;;;10.52;8.52;;;19.70;99.90;;;;;;4983975;28;20077;-76
2022/06/24 07:17:41;;;;;;;12.32;8.77;;;19.70;99.90;;;;;;5024427;28;20053;-75
2022/06/24 07:20:07;;;;;;;10.05;8.52;;;19.70;99.90;;;;;;5011371;28;20045;-76
2022/06/24 07:22:32;;;;;;;13.68;8.63;;;19.70;99.90;;;;;;5015401;28;20041;-77
2022/06/24 07:24:58;;;;;;;11.32;8.95;;;19.60;99.90;;;;;;4994842;28;20120;-77
2022/06/24 07:27:24;;;;;;;10.38;8.48;;;19.60;99.90;;;;;;5016386;28;20061;-76
2022/06/24 07:29:50;;;;;;;12.82;8.48;;;19.60;99.90;;;;;;5024726;28;20085;-76
2022/06/24 07:32:15;;;;;;;12.10;8.60;;;19.60;99.90;;;;;;5030830;28;20123;-76
2022/06/24 07:34:42;;;;;;;11.70;8.45;;;19.60;99.90;;;;;;5014525;28;20470;-77
2022/06/24 07:37:07;;;;;;;12.07;8.50;;;19.60;99.90;;;;;;5012921;28;20049;-76
2022/06/24 07:39:36;;;;;;;10.88;8.98;;;19.60;99.90;;;;;;4990763;28;20560;-76
2022/06/24 07:42:02;;;;;;;11.55;9.32;;;19.60;99.90;;;;;;5010520;28;20041;-76
2022/06/24 07:44:28;;;;;;;9.90;8.10;;;19.60;99.90;;;;;;5013683;28;20036;-77
2022/06/24 07:46:54;;;;;;;9.18;8.27;;;19.70;99.90;;;;;;5024114;28;20095;-76
2022/06/24 07:49:19;;;;;;;10.43;8.18;;;19.70;99.90;;;;;;5001211;28;20045;-76
2022/06/24 07:51:45;;;;;;;10.43;7.95;;;19.70;99.90;;;;;;5006931;28;20053;-76
2022/06/24 07:54:11;;;;;;;9.80;8.70;;;19.70;99.90;;;;;;5017575;28;20414;-76
2022/06/24 07:56:58;;;;;;;8.85;7.95;;;19.70;99.90;;;;;;5012361;28;20502;-77
2022/06/24 07:59:29;;;;;;;11.20;9.05;;;19.70;99.90;;;;;;5035423;28;20042;-76
2022/06/24 08:01:57;;;;;;;9.98;8.98;;;19.70;99.90;;;;;;5032176;28;20068;-76
2022/06/24 08:04:25;;;;;;;13.73;9.02;;;19.70;99.90;;;;;;4995626;28;20479;-76
2022/06/24 08:06:50;;;;;;;9.48;8.35;;;19.80;99.90;;;;;;5011512;28;20050;-76
2022/06/24 08:09:17;;;;;;;11.82;10.10;;;19.80;99.90;;;;;;5010146;28;20045;-76
2022/06/24 08:11:43;;;;;;;13.82;10.50;;;19.70;99.90;;;;;;4999032;28;20099;-76
2022/06/24 08:14:09;;;;;;;11.25;9.57;;;19.80;99.90;;;;;;5014895;28;20037;-76
2022/06/24 08:16:35;;;;;;;12.65;9.63;;;19.80;99.90;;;;;;5037948;28;20510;-77
2022/06/24 08:19:01;;;;;;;9.23;7.68;;;19.80;99.90;;;;;;5026165;28;20521;-76
2022/06/24 08:21:26;;;;;;;11.48;9.82;;;19.80;99.90;;;;;;5031721;28;20038;-75
2022/06/24 08:23:52;;;;;;;11.40;9.35;;;19.80;99.90;;;;;;5027989;28;20033;-75
2022/06/24 08:26:18;;;;;;;10.25;9.15;;;19.80;99.90;;;;;;5052583;28;20041;-76
2022/06/24 08:28:44;;;;;;;12.55;10.45;;;19.80;99.90;;;;;;5016088;28;20044;-76
2022/06/24 08:31:13;;;;;;;16.05;10.82;;;19.80;99.90;;;;;;5030616;28;20056;-76
2022/06/24 08:33:39;;;;;;;14.50;11.90;;;19.80;99.90;;;;;;5030150;28;20067;-75
2022/06/24 08:36:05;;;;;;;12.63;10.00;;;19.80;99.90;;;;;;5030833;28;20053;-76
2022/06/24 08:38:31;;;;;;;20.45;12.73;;;19.90;99.90;;;;;;5017722;28;20033;-75
2022/06/24 08:41:01;;;;;;;17.25;12.25;;;19.90;99.90;;;;;;5004311;28;20044;-76
2022/06/24 08:43:32;;;;;;;17.80;12.13;;;19.90;99.90;;;;;;5013946;28;20041;-77
2022/06/24 08:45:59;;;;;;;15.70;11.95;;;19.90;99.90;;;;;;5018849;28;20510;-76
2022/06/24 08:48:31;;;;;;;19.98;13.82;;;19.90;99.90;;;;;;5014585;28;20025;-77
2022/06/24 08:50:57;;;;;;;18.00;13.43;;;19.90;99.90;;;;;;5014148;28;20034;-77
2022/06/24 08:53:25;;;;;;;20.20;15.75;;;20.00;99.90;;;;;;5010773;28;20038;-76
2022/06/24 08:55:51;;;;;;;17.33;15.00;;;20.00;99.90;;;;;;5032921;28;20045;-76
2022/06/24 08:58:19;;;;;;;19.10;15.88;;;20.00;99.90;;;;;;5021823;28;20457;-76
2022/06/24 09:00:45;;;;;;;20.08;15.68;;;20.10;99.90;;;;;;5027368;28;20037;-76
2022/06/24 09:03:11;;;;;;;16.23;14.15;;;20.10;99.90;;;;;;5003432;28;20612;-76
2022/06/24 09:05:37;;;;;;;20.35;16.83;;;20.10;99.90;;;;;;5023785;28;20034;-76
2022/06/24 09:08:11;;;;;;;17.27;15.48;;;20.10;99.90;;;;;;5026836;28;20037;-76
2022/06/24 09:10:39;;;;;;;18.02;14.65;;;20.20;99.90;;;;;;5010115;28;20034;-76
2022/06/24 09:13:05;;;;;;;20.55;17.75;;;20.20;99.90;;;;;;5010406;28;20049;-76
2022/06/24 09:15:34;;;;;;;18.90;16.75;;;20.20;99.90;;;;;;5026048;28;20117;-76
2022/06/24 09:18:00;;;;;;;20.23;16.88;;;20.20;99.90;;;;;;5047000;28;20148;-77
2022/06/24 09:20:30;;;;;;;20.23;16.88;;;20.20;99.90;;;;;;5012460;28;20100;-77
2022/06/24 09:23:04;;;;;;;20.92;16.95;;;20.20;99.90;;;;;;5013696;28;20041;-76
2022/06/24 09:25:45;;;;;;;23.55;19.60;;;20.20;99.90;;;;;;5030060;28;20552;-77
2022/06/24 09:28:18;;;;;;;23.50;19.40;;;20.20;99.90;;;;;;5029744;28;20083;-77
2022/06/24 09:30:44;;;;;;;22.58;18.90;;;20.20;99.90;;;;;;5012759;28;20046;-76
2022/06/24 09:33:16;;;;;;;24.65;19.30;;;20.10;99.90;;;;;;5010160;28;20400;-77
2022/06/24 09:35:41;;;;;;;23.60;20.80;;;20.20;99.90;;;;;;5039555;28;20061;-76
2022/06/24 09:38:07;;;;;;;20.98;18.88;;;20.10;99.90;;;;;;5005012;28;20340;-77
2022/06/24 09:40:33;;;;;;;23.10;20.67;;;20.10;99.90;;;;;;5021611;28;20121;-76
2022/06/24 09:43:04;;;;;;;23.60;18.92;;;20.10;99.90;;;;;;5002497;28;20463;-77
2022/06/24 09:45:44;;;;;;;20.65;17.63;;;20.00;99.90;;;;;;5017204;28;20053;-78
2022/06/24 09:48:11;;;;;;;19.77;17.77;;;20.00;99.90;;;;;;5016776;28;20120;-77
2022/06/24 09:50:38;;;;;;;21.55;17.25;;;19.90;99.90;;;;;;5012950;28;20042;-76
2022/06/24 09:53:04;;;;;;;19.85;16.75;;;19.80;99.90;;;;;;5020902;28;20112;-76
2022/06/24 09:55:31;;;;;;;21.60;18.20;;;19.70;99.90;;;;;;5003987;28;20499;-77
2022/06/24 09:57:59;;;;;;;21.13;18.00;;;19.70;99.90;;;;;;5010091;28;20042;-77
2022/06/24 10:00:41;;;;;;;30.48;18.88;;;19.60;99.90;;;;;;5046877;28;20052;-81
2022/06/24 10:03:10;;;;;;;24.08;17.58;;;19.60;99.90;;;;;;5014332;28;20073;-79
2022/06/24 10:05:39;;;;;;;11.63;7.72;;;19.50;99.90;;;;;;5014264;28;20044;-81
2022/06/24 10:08:09;;;;;;;9.60;5.05;;;19.30;99.90;;;;;;5031107;28;20041;-80
2022/06/24 10:10:36;;;;;;;5.68;3.47;;;19.10;99.90;;;;;;5011889;28;20045;-79
2022/06/24 10:13:08;;;;;;;5.15;3.67;;;19.00;99.90;;;;;;5032948;28;20041;-77
2022/06/24 10:15:34;;;;;;;;;;;18.80;99.90;;;;;;5027000;28;20052;-77
2022/06/24 10:18:06;;;;;;;7.03;3.80;;;18.70;99.90;;;;;;5020481;28;19928;-76
2022/06/24 10:20:32;;;;;;;;;;;18.60;99.90;;;;;;5016478;28;20038;-77
2022/06/24 10:22:59;;;;;;;7.22;4.30;;;18.50;99.90;;;;;;5022379;28;20382;-82
2022/06/24 10:25:46;;;;;;;6.38;3.72;;;18.50;99.90;;;;;;5028558;28;20042;-85
2022/06/24 10:28:12;;;;;;;4.65;3.60;;;18.40;99.90;;;;;;5011525;28;20041;-83
2022/06/24 10:30:41;;;;;;;6.78;4.32;;;18.40;99.90;;;;;;5041205;28;20112;-84
2022/06/24 10:33:19;;;;;;;6.38;3.70;;;18.30;99.90;;;;;;4994648;28;20052;-85
2022/06/24 10:36:06;;;;;;;6.82;3.72;;;18.40;99.90;;;;;;5028031;28;20073;-84
2022/06/24 10:38:41;;;;;;;5.22;3.53;;;18.30;99.90;;;;;;5036277;28;20054;-85
2022/06/24 10:41:10;;;;;;;4.13;3.20;;;18.30;99.90;;;;;;4995207;28;20042;-85
2022/06/24 10:43:41;;;;;;;4.57;3.88;;;18.30;99.90;;;;;;5011541;28;20045;-86
2022/06/24 10:46:12;;;;;;;3.97;3.45;;;18.20;99.90;;;;;;5017904;28;20064;-87
2022/06/24 10:48:44;;;;;;;4.75;3.50;;;18.20;99.90;;;;;;5030986;28;20033;-86
2022/06/24 10:51:13;;;;;;;7.88;4.13;;;18.20;99.90;;;;;;5022284;28;20053;-85
2022/06/24 10:54:01;;;;;;;6.05;3.70;;;18.20;99.90;;;;;;5017508;28;20084;-86
2022/06/24 10:56:45;;;;;;;7.72;4.70;;;18.10;99.90;;;;;;4995292;28;20119;-86
2022/06/24 10:59:12;;;;;;;5.97;4.25;;;18.10;99.90;;;;;;5010410;28;20045;-85
2022/06/24 11:01:43;;;;;;;6.43;4.47;;;18.00;99.90;;;;;;5028142;28;20116;-86
2022/06/24 11:04:15;;;;;;;6.40;4.90;;;18.10;99.90;;;;;;5042147;28;20047;-86
2022/06/24 11:07:22;;;;;;;7.30;5.07;;;18.00;99.90;;;;;;5018578;28;20042;-86
2022/06/24 11:09:47;;;;;;;4.50;3.88;;;18.00;99.90;;;;;;5034017;28;20121;-86
2022/06/24 11:12:30;;;;;;;6.07;5.05;;;17.90;99.90;;;;;;4988982;28;20073;-86
2022/06/24 11:14:56;;;;;;;;;;;17.90;99.90;;;;;;5007318;28;20473;-86
2022/06/24 11:17:25;;;;;;;10.10;4.28;;;17.80;99.90;;;;;;5032871;28;19917;-86
2022/06/24 11:19:52;;;;;;;5.57;3.83;;;17.80;99.90;;;;;;5032903;28;20660;-85
2022/06/24 11:22:19;;;;;;;4.63;3.72;;;17.80;99.90;;;;;;5036904;28;20028;-84
2022/06/24 11:24:48;;;;;;;10.07;4.90;;;17.70;99.90;;;;;;5010172;28;20041;-85
2022/06/24 11:27:14;;;;;;;4.22;3.75;;;17.70;99.90;;;;;;5016464;28;20069;-85
2022/06/24 11:29:56;;;;;;;8.35;4.45;;;17.70;99.90;;;;;;5030429;28;20103;-85
2022/06/24 11:32:22;;;;;;;4.88;4.38;;;17.70;99.90;;;;;;5022473;28;20045;-85
2022/06/24 11:34:49;;;;;;;7.40;4.72;;;17.70;99.90;;;;;;5030398;28;20494;-85
2022/06/24 11:37:22;;;;;;;5.45;4.93;;;17.80;99.90;;;;;;5017806;28;20507;-84
2022/06/24 11:39:54;;;;;;;5.70;4.53;;;17.90;99.90;;;;;;5039768;28;20590;-84
2022/06/24 11:42:22;;;;;;;7.20;5.40;;;18.00;99.90;;;;;;5048371;28;20073;-83
2022/06/24 11:44:51;;;;;;;7.10;4.13;;;18.10;99.90;;;;;;5031566;28;20038;-83
2022/06/24 11:47:28;;;;;;;5.05;4.15;;;18.20;99.90;;;;;;5039387;28;20111;-84
2022/06/24 11:49:54;;;;;;;5.63;4.50;;;18.30;99.90;;;;;;5021952;28;20045;-83
2022/06/24 11:52:19;;;;;;;4.75;4.22;;;18.30;99.90;;;;;;5004155;28;20049;-83
2022/06/24 11:54:45;;;;;;;5.22;4.68;;;18.40;99.90;;;;;;5023842;28;20046;-82
2022/06/24 11:57:12;;;;;;;6.10;5.20;;;18.40;99.90;;;;;;5027558;28;20050;-83
2022/06/24 11:59:37;;;;;;;8.95;5.20;;;18.60;99.90;;;;;;5022494;28;20269;-83
2022/06/24 12:02:06;;;;;;;5.65;5.05;;;18.70;99.90;;;;;;5028552;28;20505;-81
2022/06/24 12:04:32;;;;;;;6.57;5.05;;;18.70;99.90;;;;;;5022224;28;20068;-81
2022/06/24 12:07:01;;;;;;;7.70;5.22;;;18.70;99.90;;;;;;5015439;28;20041;-82
2022/06/24 12:09:27;;;;;;;5.72;4.80;;;18.70;99.90;;;;;;5021709;28;20069;-82
2022/06/24 12:11:52;;;;;;;8.40;6.10;;;18.70;99.90;;;;;;5041419;28;20044;-82
2022/06/24 12:14:20;;;;;;;9.52;6.82;;;18.80;99.90;;;;;;5003622;28;20126;-82
2022/06/24 12:17:08;;;;;;;9.27;6.32;;;18.80;99.90;;;;;;5063442;28;20041;-81
2022/06/24 12:19:39;;;;;;;9.00;7.63;;;18.90;99.90;;;;;;5051805;28;20099;-82
2022/06/24 12:22:12;;;;;;;8.77;7.20;;;19.00;99.90;;;;;;5028828;28;20041;-81
2022/06/24 12:24:39;;;;;;;9.00;7.30;;;19.10;99.90;;;;;;5026204;28;20509;-81
2022/06/24 12:27:06;;;;;;;9.55;7.57;;;19.20;99.90;;;;;;5035600;28;20037;-82
2022/06/24 12:29:38;;;;;;;9.05;7.88;;;19.30;99.90;;;;;;5035725;28;20077;-81
2022/06/24 12:32:05;;;;;;;8.80;7.28;;;19.30;99.90;;;;;;5038517;28;20123;-81
2022/06/24 12:34:35;;;;;;;9.23;7.60;;;19.40;99.90;;;;;;5017012;28;20049;-81
2022/06/24 12:37:06;;;;;;;8.25;7.35;;;19.40;99.90;;;;;;5033581;28;20069;-82
2022/06/24 12:39:40;;;;;;;8.65;7.72;;;19.40;99.90;;;;;;5054190;28;20054;-81
2022/06/24 12:42:07;;;;;;;10.75;7.90;;;19.40;99.90;;;;;;5039761;28;20370;-83
2022/06/24 12:44:47;;;;;;;8.95;7.95;;;19.50;99.90;;;;;;5017332;28;20045;-82
2022/06/24 12:53:00;;;;;;;10.13;8.30;;;19.80;99.90;;;;;;5027185;28;20045;-82
2022/06/24 12:55:27;;;;;;;11.45;8.93;;;19.70;99.90;;;;;;5003884;28;20077;-81
2022/06/24 12:57:54;;;;;;;10.05;8.65;;;19.90;99.90;;;;;;5023275;28;20188;-82
2022/06/24 13:00:20;;;;;;;10.20;9.15;;;19.90;99.90;;;;;;4994555;28;20034;-81
2022/06/24 13:02:48;;;;;;;8.90;8.00;;;19.90;99.90;;;;;;5015781;28;20411;-81